KIWD/IWD METAR and TAF weather

Enter ICAO airport designator
Station Type Date Time Source
KIWD METAR 2019/10/21 05:56 UTC NOAA

KIWD 210556Z AUTO 08006KT 10SM CLR 07/03 A2991 RMK AO2 SLP134 T00720033 10083 20061 58002


Station Type Date Time Source
KIWD Decoded METAR 2019/10/21 05:56 UTC NOAA

Ironwood, Gogebic-Iron County Airport, MI, United States (KIWD) 46-32N 090-08W
Oct 21, 2019 - 01:56 AM EDT / 2019.10.21 0556 UTC
Wind: from the E (080 degrees) at 7 MPH (6 KT):0
Visibility: 10 mile(s):0
Sky conditions: clear
Temperature: 45.0 F (7.2 C)
Dew Point: 37.9 F (3.3 C)
Relative Humidity: 76%
Pressure (altimeter): 29.91 in. Hg (1012 hPa)
Pressure tendency: 0.01 inches (0.2 hPa) lower than three hours ago
ob: KIWD 210556Z AUTO 08006KT 10SM CLR 07/03 A2991 RMK AO2 SLP134 T00720033 10083 20061 58002
cycle: 6

Station Type Date Time Source
KIWD TAF 2019/10/21 06:22 UTC NOAA

TAF KIWD 210520Z 2106/2206 10005KT P6SM BKN150
FM211200 12011G19KT P6SM OVC120
FM211500 10013G24KT P6SM -SHRA OVC018 WS020/14045KT
FM211900 09014G28KT 3SM SHRA BR OVC008 WS020/14050KT
FM212300 13009KT P6SM -SHRA BKN018
FM220100 15008KT P6SM BKN030

Example: see airport list